createdAt,value
2018-08-04T00:01:57.978Z,26.61
2018-08-04T00:04:26.388Z,26.61
2018-08-04T00:06:54.793Z,26.57
2018-08-04T00:09:23.173Z,26.51
2018-08-04T00:11:51.750Z,26.40
2018-08-04T00:14:20.172Z,26.33
2018-08-04T00:16:48.602Z,26.30
2018-08-04T00:19:17.044Z,26.32
2018-08-04T00:21:45.432Z,26.29
2018-08-04T00:24:13.916Z,26.28
2018-08-04T00:26:42.887Z,26.27
2018-08-04T00:29:11.291Z,26.25
2018-08-04T00:31:39.682Z,26.20
2018-08-04T00:34:08.105Z,26.12
2018-08-04T00:36:36.599Z,26.04
2018-08-04T00:39:07.011Z,26.05
2018-08-04T00:41:35.510Z,26.11
2018-08-04T00:44:04.011Z,26.15
2018-08-04T00:46:32.400Z,26.13
2018-08-04T00:49:00.846Z,26.13
2018-08-04T00:51:29.252Z,26.15
2018-08-04T00:53:57.915Z,26.09
2018-08-04T00:56:26.328Z,26.00
2018-08-04T00:58:54.747Z,25.93
2018-08-04T01:01:23.169Z,25.89
2018-08-04T01:03:51.615Z,25.86
2018-08-04T01:06:20.001Z,25.82
2018-08-04T01:08:48.420Z,25.87
2018-08-04T01:11:16.832Z,25.83
2018-08-04T01:13:45.299Z,25.81
2018-08-04T01:16:13.660Z,25.81
2018-08-04T01:18:42.099Z,25.81
2018-08-04T01:21:10.961Z,25.81
2018-08-04T01:23:39.351Z,25.81
2018-08-04T01:26:07.778Z,25.73
2018-08-04T01:28:36.244Z,25.72
2018-08-04T01:31:04.689Z,25.65
2018-08-04T01:33:33.147Z,25.63
2018-08-04T01:36:01.523Z,25.65
2018-08-04T01:38:29.923Z,25.68
2018-08-04T01:40:58.371Z,25.64
2018-08-04T01:43:26.764Z,25.65
2018-08-04T01:45:55.221Z,25.62
2018-08-04T01:48:23.660Z,25.61
2018-08-04T01:50:52.075Z,25.62
2018-08-04T01:53:20.512Z,25.63
2018-08-04T01:55:48.992Z,25.57
2018-08-04T01:58:17.416Z,25.52
2018-08-04T02:00:45.900Z,25.50
2018-08-04T02:03:15.480Z,25.40
2018-08-04T02:05:43.906Z,25.35
2018-08-04T02:08:12.363Z,25.24
2018-08-04T02:10:40.761Z,25.19
2018-08-04T02:13:09.272Z,25.17
2018-08-04T02:15:37.713Z,25.21
2018-08-04T02:18:06.126Z,25.22
2018-08-04T02:20:34.541Z,25.19
2018-08-04T02:23:02.940Z,25.15
2018-08-04T02:25:31.351Z,25.17
2018-08-04T02:27:59.874Z,25.18
2018-08-04T02:30:28.257Z,25.13
2018-08-04T02:32:56.695Z,25.08
2018-08-04T02:35:25.102Z,25.00
2018-08-04T02:37:53.533Z,25.08
2018-08-04T02:40:21.973Z,25.05
2018-08-04T02:42:50.385Z,25.00
2018-08-04T02:45:18.767Z,24.96
2018-08-04T02:47:47.209Z,24.94
2018-08-04T02:50:15.584Z,24.95
2018-08-04T02:52:44.001Z,24.89
2018-08-04T02:55:12.362Z,24.67
2018-08-04T02:57:40.794Z,24.45
2018-08-04T03:00:09.209Z,24.48
2018-08-04T03:02:37.632Z,24.52
2018-08-04T03:05:06.925Z,24.52
2018-08-04T03:07:35.353Z,24.55
2018-08-04T03:10:03.877Z,24.57
2018-08-04T03:12:32.321Z,24.55
2018-08-04T03:15:00.696Z,24.57
2018-08-04T03:17:29.107Z,24.57
2018-08-04T03:19:57.488Z,24.59
2018-08-04T03:22:25.897Z,24.55
2018-08-04T03:24:54.336Z,24.49
2018-08-04T03:27:22.704Z,24.42
2018-08-04T03:29:51.099Z,24.41
2018-08-04T03:32:19.523Z,24.37
2018-08-04T03:34:47.908Z,24.32
2018-08-04T03:37:16.310Z,24.32
2018-08-04T03:39:44.690Z,24.30
2018-08-04T03:42:13.111Z,24.25
2018-08-04T03:44:41.496Z,24.21
2018-08-04T03:47:09.916Z,24.12
2018-08-04T03:49:38.312Z,24.03
2018-08-04T03:52:06.723Z,23.84
2018-08-04T03:54:35.152Z,23.63
2018-08-04T03:57:03.627Z,23.45
2018-08-04T03:59:32.072Z,23.46
2018-08-04T04:02:00.402Z,23.56
2018-08-04T04:04:28.860Z,23.69
2018-08-04T04:06:57.292Z,23.81
2018-08-04T04:09:25.731Z,23.77
2018-08-04T04:11:54.167Z,23.80
2018-08-04T04:14:22.530Z,23.88
2018-08-04T04:16:50.942Z,23.89
2018-08-04T04:19:19.304Z,23.84
2018-08-04T04:21:47.719Z,23.67
2018-08-04T04:24:16.076Z,23.65
2018-08-04T04:26:44.442Z,23.74
2018-08-04T04:29:12.827Z,23.81
2018-08-04T04:31:41.407Z,23.89
2018-08-04T04:34:09.839Z,23.93
2018-08-04T04:36:38.253Z,23.95
2018-08-04T04:39:09.304Z,23.96
2018-08-04T04:41:37.799Z,23.96
2018-08-04T04:44:06.296Z,23.93
2018-08-04T04:46:39.947Z,23.88
2018-08-04T04:49:10.382Z,23.91
2018-08-04T04:51:39.268Z,23.83
2018-08-04T04:54:07.705Z,23.88
2018-08-04T04:56:36.119Z,23.86
2018-08-04T04:59:04.848Z,23.79
2018-08-04T05:01:33.236Z,23.67
2018-08-04T05:04:01.768Z,23.64
2018-08-04T05:06:30.339Z,23.61
2018-08-04T05:08:58.895Z,23.59
2018-08-04T05:11:27.440Z,23.59
2018-08-04T05:13:56.068Z,23.63
2018-08-04T05:16:24.412Z,23.55
2018-08-04T05:18:52.815Z,23.57
2018-08-04T05:21:21.286Z,23.55
2018-08-04T05:23:49.642Z,23.47
2018-08-04T05:26:18.049Z,23.48
2018-08-04T05:28:46.476Z,23.61
2018-08-04T05:31:14.860Z,23.68
2018-08-04T05:33:43.232Z,23.67
2018-08-04T05:36:11.625Z,23.65
2018-08-04T05:38:40.037Z,23.65
2018-08-04T05:41:08.502Z,23.72
2018-08-04T05:43:36.968Z,23.77
2018-08-04T05:46:05.337Z,23.80
2018-08-04T05:48:33.755Z,23.88
2018-08-04T05:51:02.168Z,23.92
2018-08-04T05:53:30.598Z,23.87
2018-08-04T05:55:58.983Z,23.88
2018-08-04T05:58:27.383Z,23.88
2018-08-04T06:00:55.790Z,23.81
2018-08-04T06:03:24.253Z,23.79
2018-08-04T06:05:52.627Z,23.78
2018-08-04T06:08:21.000Z,23.72
2018-08-04T06:10:49.420Z,23.74
2018-08-04T06:13:17.823Z,23.75
2018-08-04T06:15:46.217Z,23.75
2018-08-04T06:18:14.628Z,23.68
2018-08-04T06:20:43.100Z,23.67
2018-08-04T06:23:11.492Z,23.76
2018-08-04T06:25:39.864Z,23.77
2018-08-04T06:28:08.257Z,23.87
2018-08-04T06:30:36.754Z,23.93
2018-08-04T06:33:05.060Z,23.99
2018-08-04T06:35:33.463Z,24.05
2018-08-04T06:38:01.853Z,24.08
2018-08-04T06:40:30.348Z,24.03
2018-08-04T06:42:58.737Z,24.03
2018-08-04T06:45:27.127Z,23.97
2018-08-04T06:47:55.544Z,23.92
2018-08-04T06:50:24.015Z,23.84
2018-08-04T06:52:52.593Z,23.83
2018-08-04T06:55:20.873Z,23.87
2018-08-04T06:57:49.270Z,23.92
2018-08-04T07:00:17.716Z,23.92
2018-08-04T07:02:46.123Z,23.98
2018-08-04T07:05:14.512Z,24.00
2018-08-04T07:07:43.009Z,23.97
2018-08-04T07:10:11.421Z,23.95
2018-08-04T07:12:39.885Z,23.98
2018-08-04T07:15:08.368Z,24.06
2018-08-04T07:17:36.756Z,24.10
2018-08-04T07:20:05.439Z,24.15
2018-08-04T07:22:33.909Z,24.18
2018-08-04T07:25:02.316Z,24.23
2018-08-04T07:27:30.704Z,24.26
2018-08-04T07:29:59.154Z,24.28
2018-08-04T07:32:27.565Z,24.30
2018-08-04T07:34:55.969Z,24.33
2018-08-04T07:37:24.362Z,24.40
2018-08-04T07:39:53.100Z,24.41
2018-08-04T07:42:21.532Z,24.45
2018-08-04T07:44:50.519Z,24.47
2018-08-04T07:47:19.600Z,24.53
2018-08-04T07:49:47.970Z,24.56
2018-08-04T07:52:16.377Z,24.59
2018-08-04T07:54:45.688Z,24.63
2018-08-04T07:57:14.101Z,24.67
2018-08-04T07:59:42.479Z,24.68
2018-08-04T08:02:10.941Z,24.72
2018-08-04T08:04:39.395Z,24.70
2018-08-04T08:07:07.983Z,24.73
2018-08-04T08:09:36.412Z,24.79
2018-08-04T08:12:04.949Z,24.81
2018-08-04T08:14:33.373Z,24.79
2018-08-04T08:17:01.768Z,24.81
2018-08-04T08:19:30.261Z,24.86
2018-08-04T08:21:58.709Z,24.93
2018-08-04T08:24:27.120Z,25.02
2018-08-04T08:26:55.808Z,25.09
2018-08-04T08:29:24.577Z,25.13
2018-08-04T08:31:53.012Z,25.16
2018-08-04T08:34:21.412Z,25.14
2018-08-04T08:36:54.320Z,25.19
2018-08-04T08:39:25.085Z,25.36
2018-08-04T08:41:53.531Z,25.38
2018-08-04T08:44:22.826Z,25.42
2018-08-04T08:46:52.099Z,25.44
2018-08-04T08:49:20.529Z,25.37
2018-08-04T08:51:48.921Z,25.37
2018-08-04T08:54:17.398Z,25.54
2018-08-04T08:56:45.828Z,25.58
2018-08-04T08:59:14.197Z,25.66
2018-08-04T09:01:42.669Z,25.68
2018-08-04T09:04:11.064Z,25.81
2018-08-04T09:06:39.505Z,25.80
2018-08-04T09:09:09.786Z,25.76
2018-08-04T09:11:38.379Z,25.84
2018-08-04T09:14:07.281Z,25.86
2018-08-04T09:16:36.072Z,25.93
2018-08-04T09:19:04.660Z,25.91
2018-08-04T09:21:33.050Z,25.96
2018-08-04T09:24:02.104Z,26.00
2018-08-04T09:26:31.487Z,26.03
2018-08-04T09:28:59.908Z,26.09
2018-08-04T09:31:29.087Z,26.09
2018-08-04T09:33:57.490Z,26.04
2018-08-04T09:36:25.856Z,26.08
2018-08-04T09:38:54.347Z,26.03
2018-08-04T09:41:22.892Z,26.06
2018-08-04T09:43:51.501Z,26.07
2018-08-04T09:46:19.963Z,26.12
2018-08-04T09:48:48.666Z,26.25
2018-08-04T09:51:17.058Z,26.34
2018-08-04T09:53:45.461Z,26.38
2018-08-04T09:56:13.905Z,26.43
2018-08-04T09:58:42.332Z,26.42
2018-08-04T10:01:15.918Z,26.43
2018-08-04T10:03:44.942Z,26.50
2018-08-04T10:06:13.349Z,26.51
2018-08-04T10:08:41.803Z,26.57
2018-08-04T10:11:10.256Z,26.48
2018-08-04T10:13:38.663Z,26.44
2018-08-04T10:16:07.066Z,26.35
2018-08-04T10:18:35.755Z,26.61
2018-08-04T10:21:04.209Z,26.67
2018-08-04T10:23:32.624Z,26.68
2018-08-04T10:26:01.064Z,26.74
2018-08-04T10:28:29.464Z,26.83
2018-08-04T10:30:57.980Z,26.83
2018-08-04T10:33:26.397Z,26.89
2018-08-04T10:35:54.844Z,26.92
2018-08-04T10:38:23.249Z,26.97
2018-08-04T10:40:51.705Z,26.96
2018-08-04T10:43:20.079Z,26.87
2018-08-04T10:45:48.922Z,26.84
2018-08-04T10:48:17.354Z,26.78
2018-08-04T10:50:46.405Z,26.80
2018-08-04T10:53:14.826Z,26.80
2018-08-04T10:55:43.253Z,26.86
2018-08-04T10:58:11.711Z,26.91
2018-08-04T11:00:40.133Z,27.25
2018-08-04T11:03:08.639Z,27.22
2018-08-04T11:05:37.116Z,27.12
2018-08-04T11:08:05.592Z,27.11
2018-08-04T11:10:34.071Z,27.13
2018-08-04T11:13:02.503Z,27.08
2018-08-04T11:15:30.931Z,27.09
2018-08-04T11:17:59.305Z,27.05
2018-08-04T11:20:27.790Z,27.04
2018-08-04T11:22:56.219Z,27.17
2018-08-04T11:25:24.651Z,27.13
2018-08-04T11:27:53.128Z,27.23
2018-08-04T11:30:21.545Z,27.22
2018-08-04T11:32:49.916Z,27.34
2018-08-04T11:35:18.409Z,27.38
2018-08-04T11:37:46.873Z,27.32
2018-08-04T11:40:15.237Z,27.45
2018-08-04T11:42:43.691Z,27.57
2018-08-04T11:45:12.134Z,27.60
2018-08-04T11:47:40.577Z,27.57
2018-08-04T11:50:09.030Z,27.66
2018-08-04T11:52:37.482Z,27.77
2018-08-04T11:55:05.973Z,28.11
2018-08-04T11:57:34.712Z,28.15
2018-08-04T12:00:03.152Z,28.21
2018-08-04T12:02:31.624Z,28.29
2018-08-04T12:05:00.056Z,28.35
2018-08-04T12:07:29.128Z,28.71
2018-08-04T12:09:57.528Z,28.82
2018-08-04T12:12:26.029Z,28.92
2018-08-04T12:14:54.440Z,29.15
2018-08-04T12:17:22.861Z,29.39
2018-08-04T12:19:51.254Z,29.46
2018-08-04T12:22:19.735Z,29.65
2018-08-04T12:24:48.177Z,29.89
2018-08-04T12:27:16.609Z,30.17
2018-08-04T12:29:44.963Z,30.37
2018-08-04T12:32:13.411Z,30.55
2018-08-04T12:34:41.802Z,30.84
2018-08-04T12:37:10.271Z,30.95
2018-08-04T12:39:38.913Z,31.19
2018-08-04T12:42:07.390Z,31.48
2018-08-04T12:44:35.870Z,31.51
2018-08-04T12:47:04.294Z,31.79
2018-08-04T12:49:32.791Z,31.87
2018-08-04T12:52:01.280Z,32.01
2018-08-04T12:54:29.679Z,32.22
2018-08-04T12:56:58.095Z,32.42
2018-08-04T12:59:26.562Z,32.67
2018-08-04T13:01:54.953Z,32.79
2018-08-04T13:04:23.391Z,32.58
2018-08-04T13:06:51.784Z,32.51
2018-08-04T13:09:20.173Z,32.67
2018-08-04T13:11:48.636Z,32.76
2018-08-04T13:14:17.071Z,32.50
2018-08-04T13:16:45.509Z,32.48
2018-08-04T13:19:13.941Z,32.52
2018-08-04T13:21:42.326Z,32.59
2018-08-04T13:24:10.769Z,32.99
2018-08-04T13:26:39.212Z,32.82
2018-08-04T13:29:07.764Z,32.45
2018-08-04T13:31:36.212Z,32.57
2018-08-04T13:34:04.663Z,32.65
2018-08-04T13:36:33.077Z,32.70
2018-08-04T13:39:01.902Z,32.52
2018-08-04T13:41:30.316Z,32.71
2018-08-04T13:43:58.702Z,32.85
2018-08-04T13:46:27.745Z,33.05
2018-08-04T13:48:56.155Z,33.17
2018-08-04T13:51:24.595Z,33.22
2018-08-04T13:53:53.064Z,33.08
2018-08-04T13:56:21.490Z,32.84
2018-08-04T13:58:49.956Z,32.85
2018-08-04T14:01:18.374Z,32.58
2018-08-04T14:03:46.822Z,32.82
2018-08-04T14:06:15.917Z,32.65
2018-08-04T14:08:44.358Z,32.82
2018-08-04T14:11:12.847Z,32.75
2018-08-04T14:13:41.275Z,32.77
2018-08-04T14:16:09.752Z,32.48
2018-08-04T14:18:38.187Z,32.38
2018-08-04T14:21:06.756Z,32.49
2018-08-04T14:23:35.170Z,32.35
2018-08-04T14:26:03.609Z,32.44
2018-08-04T14:28:32.152Z,32.45
2018-08-04T14:31:00.470Z,32.24
2018-08-04T14:33:28.895Z,32.26
2018-08-04T14:35:57.335Z,32.31
2018-08-04T14:38:25.696Z,32.16
2018-08-04T14:40:54.812Z,32.03
2018-08-04T14:43:23.306Z,31.94
2018-08-04T14:45:51.791Z,32.08
2018-08-04T14:48:20.143Z,32.20
2018-08-04T14:50:48.589Z,32.20
2018-08-04T14:53:17.000Z,32.17
2018-08-04T14:55:45.475Z,32.08
2018-08-04T14:58:13.957Z,31.80
2018-08-04T15:00:42.412Z,31.67
2018-08-04T15:03:10.756Z,31.79
2018-08-04T15:05:39.745Z,31.73
2018-08-04T15:08:08.168Z,31.82
2018-08-04T15:10:36.644Z,31.77
2018-08-04T15:13:05.152Z,31.83
2018-08-04T15:15:33.577Z,31.79
2018-08-04T15:18:03.023Z,31.70
2018-08-04T15:20:31.430Z,31.76
2018-08-04T15:22:59.996Z,31.81
2018-08-04T15:25:28.385Z,31.76
2018-08-04T15:27:56.929Z,31.83
2018-08-04T15:30:25.337Z,31.79
2018-08-04T15:32:53.827Z,31.79
2018-08-04T15:35:22.473Z,31.64
2018-08-04T15:37:51.223Z,31.64
2018-08-04T15:40:19.784Z,31.68
2018-08-04T15:42:48.314Z,31.72
2018-08-04T15:45:16.725Z,31.78
2018-08-04T15:47:45.216Z,31.80
2018-08-04T15:50:13.646Z,31.82
2018-08-04T15:52:43.383Z,31.93
2018-08-04T15:55:11.801Z,31.71
2018-08-04T15:57:40.200Z,31.59
2018-08-04T16:00:09.788Z,31.55
2018-08-04T16:02:38.193Z,31.62
2018-08-04T16:05:06.751Z,31.62
2018-08-04T16:07:35.140Z,31.70
2018-08-04T16:10:03.721Z,31.70
2018-08-04T16:12:32.274Z,31.66
2018-08-04T16:15:00.885Z,31.62
2018-08-04T16:17:29.301Z,31.48
2018-08-04T16:19:57.737Z,31.37
2018-08-04T16:22:26.200Z,31.21
2018-08-04T16:24:54.672Z,31.33
2018-08-04T16:27:24.351Z,31.31
2018-08-04T16:29:53.681Z,31.22
2018-08-04T16:32:22.039Z,31.25
2018-08-04T16:34:50.438Z,31.21
2018-08-04T16:37:19.021Z,31.10
2018-08-04T16:39:47.450Z,30.98
2018-08-04T16:42:15.863Z,30.95
2018-08-04T16:44:44.332Z,30.92
2018-08-04T16:47:12.760Z,30.82
2018-08-04T16:49:41.180Z,30.80
2018-08-04T16:52:10.256Z,30.79
2018-08-04T16:54:38.645Z,30.72
2018-08-04T16:57:07.884Z,30.63
2018-08-04T16:59:36.412Z,30.60
2018-08-04T17:02:04.767Z,30.53
2018-08-04T17:04:33.159Z,30.46
2018-08-04T17:07:01.630Z,30.41
2018-08-04T17:09:30.240Z,30.32
2018-08-04T17:11:58.676Z,30.29
2018-08-04T17:14:27.156Z,30.15
2018-08-04T17:16:55.691Z,30.06
2018-08-04T17:19:24.102Z,29.99
2018-08-04T17:21:52.595Z,29.94
2018-08-04T17:24:20.988Z,29.94
2018-08-04T17:26:50.149Z,29.92
2018-08-04T17:29:18.576Z,29.89
2018-08-04T17:31:47.049Z,29.83
2018-08-04T17:34:16.012Z,29.70
2018-08-04T17:36:44.382Z,29.61
2018-08-04T17:39:13.146Z,29.53
2018-08-04T17:41:41.556Z,29.47
2018-08-04T17:44:10.005Z,29.34
2018-08-04T17:46:38.522Z,29.28
2018-08-04T17:49:06.911Z,29.24
2018-08-04T17:51:35.369Z,29.20
2018-08-04T17:54:03.772Z,29.18
2018-08-04T17:56:32.180Z,29.10
2018-08-04T17:59:00.661Z,29.09
2018-08-04T18:01:29.026Z,29.08
2018-08-04T18:03:57.505Z,29.15
2018-08-04T18:06:25.906Z,29.11
2018-08-04T18:08:54.459Z,29.10
2018-08-04T18:11:22.924Z,29.04
2018-08-04T18:13:51.364Z,29.02
2018-08-04T18:16:19.755Z,29.07
2018-08-04T18:18:48.302Z,28.96
2018-08-04T18:21:16.900Z,28.93
2018-08-04T18:23:45.331Z,29.03
2018-08-04T18:26:13.825Z,28.95
2018-08-04T18:28:43.216Z,28.88
2018-08-04T18:31:11.632Z,28.73
2018-08-04T18:33:40.063Z,28.69
2018-08-04T18:36:09.045Z,28.52
2018-08-04T18:38:37.475Z,28.39
2018-08-04T18:41:05.861Z,28.36
2018-08-04T18:43:34.379Z,28.30
2018-08-04T18:46:02.844Z,28.22
2018-08-04T18:48:31.293Z,28.20
2018-08-04T18:50:59.690Z,28.18
2018-08-04T18:53:28.107Z,28.17
2018-08-04T18:55:57.200Z,28.11
2018-08-04T18:58:25.616Z,28.02
2018-08-04T19:00:54.067Z,27.86
2018-08-04T19:03:22.619Z,27.81
2018-08-04T19:05:51.038Z,27.72
2018-08-04T19:08:19.509Z,27.62
2018-08-04T19:10:47.941Z,27.54
2018-08-04T19:13:17.360Z,27.56
2018-08-04T19:15:45.843Z,27.38
2018-08-04T19:18:14.239Z,27.43
2018-08-04T19:20:42.726Z,27.15
2018-08-04T19:23:11.136Z,27.35
2018-08-04T19:25:39.628Z,27.17
2018-08-04T19:28:08.141Z,27.19
2018-08-04T19:30:36.511Z,27.21
2018-08-04T19:33:05.017Z,27.13
2018-08-04T19:35:33.471Z,27.10
2018-08-04T19:38:01.861Z,27.06
2018-08-04T19:40:30.272Z,26.98
2018-08-04T19:42:59.236Z,26.94
2018-08-04T19:45:27.672Z,26.84
2018-08-04T19:47:56.099Z,26.81
2018-08-04T19:50:24.557Z,26.82
2018-08-04T19:52:52.988Z,26.65
2018-08-04T19:55:21.417Z,26.60
2018-08-04T19:57:49.837Z,26.68
2018-08-04T20:00:18.373Z,26.64
2018-08-04T20:02:46.760Z,26.56
2018-08-04T20:05:15.174Z,26.47
2018-08-04T20:07:43.601Z,26.50
2018-08-04T20:10:12.016Z,26.27
2018-08-04T20:12:57.184Z,24.67
2018-08-04T20:15:25.686Z,26.09
2018-08-04T20:17:54.083Z,26.07
2018-08-04T20:20:22.621Z,26.03
2018-08-04T20:22:51.036Z,26.03
2018-08-04T20:25:19.457Z,25.98
2018-08-04T20:27:47.906Z,25.91
2018-08-04T20:30:16.389Z,25.90
2018-08-04T20:32:44.845Z,25.69
2018-08-04T20:35:13.400Z,25.64
2018-08-04T20:37:41.835Z,25.70
2018-08-04T20:40:10.267Z,25.71
2018-08-04T20:42:38.720Z,25.56
2018-08-04T20:45:07.473Z,25.50
2018-08-04T20:47:35.984Z,25.54
2018-08-04T20:50:04.786Z,25.41
2018-08-04T20:52:33.387Z,25.49
2018-08-04T20:55:01.947Z,25.52
2018-08-04T20:57:30.390Z,25.55
2018-08-04T20:59:59.928Z,25.41
2018-08-04T21:02:28.349Z,25.27
2018-08-04T21:04:56.752Z,25.18
2018-08-04T21:07:25.165Z,25.20
2018-08-04T21:09:53.631Z,25.06
2018-08-04T21:12:22.040Z,24.96
2018-08-04T21:14:50.464Z,25.05
2018-08-04T21:17:18.872Z,24.98
2018-08-04T21:19:47.281Z,24.88
2018-08-04T21:22:16.536Z,24.88
2018-08-04T21:24:44.919Z,24.69
2018-08-04T21:27:13.296Z,24.76
2018-08-04T21:29:41.684Z,24.64
2018-08-04T21:32:10.178Z,24.55
2018-08-04T21:34:38.627Z,24.55
2018-08-04T21:37:07.072Z,24.61
2018-08-04T21:39:35.479Z,24.55
2018-08-04T21:42:03.924Z,24.50
2018-08-04T21:44:32.453Z,24.61
2018-08-04T21:47:00.808Z,24.50
2018-08-04T21:49:29.266Z,24.59
2018-08-04T21:51:57.667Z,24.46
2018-08-04T21:54:26.072Z,24.60
2018-08-04T21:56:54.533Z,24.46
2018-08-04T21:59:22.940Z,24.50
2018-08-04T22:01:55.654Z,24.46
2018-08-04T22:04:24.267Z,24.42
2018-08-04T22:08:04.872Z,24.26
2018-08-04T22:10:33.335Z,24.33
2018-08-04T22:13:01.840Z,24.33
2018-08-04T22:15:30.224Z,24.35
2018-08-04T22:17:58.767Z,24.26
2018-08-04T22:20:27.748Z,24.22
2018-08-04T22:22:56.238Z,24.31
2018-08-04T22:25:25.750Z,24.36
2018-08-04T22:27:54.495Z,24.20
2018-08-04T22:30:23.448Z,24.11
2018-08-04T22:32:52.085Z,24.01
2018-08-04T22:35:20.753Z,23.88
2018-08-04T22:37:49.263Z,23.98
2018-08-04T22:40:18.558Z,23.93
2018-08-04T22:42:47.040Z,23.99
2018-08-04T22:46:10.867Z,23.95
2018-08-04T22:48:39.662Z,23.78
2018-08-04T22:51:08.060Z,23.65
2018-08-04T22:53:36.701Z,23.66
2018-08-04T22:56:05.266Z,23.68
2018-08-04T22:58:33.776Z,23.65
2018-08-04T23:01:02.226Z,23.59
2018-08-04T23:03:30.730Z,23.42
2018-08-04T23:05:59.173Z,23.41
2018-08-04T23:08:28.508Z,23.42
2018-08-04T23:10:56.920Z,23.39
2018-08-04T23:13:25.342Z,23.34
2018-08-04T23:15:54.322Z,23.25
2018-08-04T23:18:22.790Z,23.04
2018-08-04T23:20:51.231Z,23.01
2018-08-04T23:23:19.629Z,23.05
2018-08-04T23:25:48.051Z,22.97
2018-08-04T23:28:16.447Z,22.89
2018-08-04T23:30:44.840Z,23.01
2018-08-04T23:33:13.531Z,23.04
2018-08-04T23:35:41.924Z,23.20
2018-08-04T23:38:10.368Z,23.22
2018-08-04T23:40:38.971Z,23.08
2018-08-04T23:43:07.403Z,22.98
2018-08-04T23:45:36.573Z,22.94
2018-08-04T23:48:05.023Z,23.03
2018-08-04T23:50:33.399Z,23.00
2018-08-04T23:53:02.266Z,22.96
2018-08-04T23:55:30.708Z,22.97
2018-08-04T23:57:59.122Z,22.80
